Time;durP1;ratioP1;P1;durP2;ratioP2;P2;SDS_P1;SDS_P2;PMS_P1;PMS_P2;Temp;Humidity;BMP_temperature;BMP_pressure;BME280_temperature;BME280_humidity;BME280_pressure;Samples;Min_cycle;Max_cycle;Signal;HPM_P1;HPM_P2
2023/01/09 00:00:48;;;;;;;3.80;2.75;;;;;;;8.48;100.00;98530.28;5073904;28;20207;-72
2023/01/09 00:03:14;;;;;;;2.88;2.40;;;;;;;8.47;100.00;98529.44;5074349;28;21786;-71
2023/01/09 00:05:42;;;;;;;4.32;2.65;;;;;;;8.54;100.00;98519.16;5073207;28;20228;-72
2023/01/09 00:08:09;;;;;;;3.88;2.80;;;;;;;8.57;100.00;98513.59;5077062;28;20252;-73
2023/01/09 00:10:36;;;;;;;5.65;2.72;;;;;;;8.57;100.00;98500.19;5086705;28;20235;-72
2023/01/09 00:13:02;;;;;;;3.88;3.00;;;;;;;8.61;100.00;98512.41;5077531;28;20227;-73
2023/01/09 00:15:29;;;;;;;5.22;4.32;;;;;;;8.61;100.00;98504.34;5072991;28;20321;-72
2023/01/09 00:17:55;;;;;;;4.65;3.70;;;;;;;8.65;100.00;98502.34;5073001;28;20292;-73
2023/01/09 00:20:22;;;;;;;4.65;3.55;;;;;;;8.62;100.00;98495.34;5072376;28;20604;-73
2023/01/09 00:22:50;;;;;;;4.30;3.65;;;;;;;8.64;100.00;98498.81;5072443;28;20221;-72
2023/01/09 00:25:16;;;;;;;5.30;4.07;;;;;;;8.68;100.00;98481.53;5073209;28;20204;-71
2023/01/09 00:27:43;;;;;;;6.38;4.68;;;;;;;8.70;100.00;98489.47;5072783;28;20196;-72
2023/01/09 00:30:11;;;;;;;5.13;4.20;;;;;;;8.65;100.00;98486.22;5072997;28;20199;-71
2023/01/09 00:32:37;;;;;;;7.07;5.32;;;;;;;8.62;100.00;98475.72;5072659;28;20231;-71
2023/01/09 00:35:04;;;;;;;6.80;5.53;;;;;;;8.62;100.00;98475.72;5073224;28;20224;-72
2023/01/09 00:37:31;;;;;;;6.40;5.53;;;;;;;8.60;100.00;98477.66;5073170;28;20283;-72
2023/01/09 00:39:59;;;;;;;7.22;5.20;;;;;;;8.64;100.00;98477.34;5064439;28;20288;-72
2023/01/09 00:42:28;;;;;;;7.70;6.22;;;;;;;8.65;100.00;98468.31;5073610;28;20716;-72
2023/01/09 00:44:58;;;;;;;6.03;5.05;;;;;;;8.64;100.00;98468.41;5073227;28;20271;-72
2023/01/09 00:47:31;;;;;;;8.52;5.05;;;;;;;8.64;100.00;98465.72;5075895;28;20196;-72
2023/01/09 00:50:00;;;;;;;8.20;6.10;;;;;;;8.59;100.00;98460.66;5074441;28;20193;-71
2023/01/09 00:52:29;;;;;;;9.05;6.15;;;;;;;8.57;100.00;98454.56;5074565;28;20248;-72
2023/01/09 00:54:59;;;;;;;7.70;6.10;;;;;;;8.56;100.00;98456.38;5073014;28;20221;-72
2023/01/09 00:57:26;;;;;;;8.02;6.30;;;;;;;8.55;100.00;98457.34;5073038;28;20196;-71
2023/01/09 00:59:52;;;;;;;8.35;6.47;;;;;;;8.56;100.00;98450.16;5071298;28;20196;-72
2023/01/09 01:02:19;;;;;;;7.35;5.70;;;;;;;8.58;100.00;98444.69;5072632;28;20580;-72
2023/01/09 01:07:38;;;;;;;7.65;6.18;;;;;;;8.53;100.00;98437.81;5071336;28;20192;-70
2023/01/09 01:10:11;;;;;;;6.43;5.70;;;;;;;8.54;100.00;98444.03;5073100;28;20662;-73
2023/01/09 01:12:39;;;;;;;7.68;6.20;;;;;;;8.52;100.00;98435.22;5073702;28;20223;-71
2023/01/09 01:15:08;;;;;;;7.53;5.68;;;;;;;8.48;100.00;98433.72;5073065;28;20557;-72
2023/01/09 01:17:36;;;;;;;7.95;5.68;;;;;;;8.47;100.00;98427.50;5056276;28;20200;-72
2023/01/09 01:20:03;;;;;;;6.15;5.32;;;;;;;8.50;100.00;98432.66;5072528;28;20204;-71
2023/01/09 01:22:30;;;;;;;6.97;4.88;;;;;;;8.50;100.00;98421.94;5067906;28;20232;-70
2023/01/09 01:24:56;;;;;;;7.32;5.35;;;;;;;8.46;100.00;98423.09;5071577;28;20199;-71
2023/01/09 01:27:24;;;;;;;6.30;5.25;;;;;;;8.54;100.00;98415.38;5072478;28;20201;-71
2023/01/09 01:29:51;;;;;;;9.57;5.82;;;;;;;8.52;100.00;98428.06;5071059;28;20203;-71
2023/01/09 01:32:18;;;;;;;8.20;6.00;;;;;;;8.52;100.00;98428.06;5071999;28;20230;-71
2023/01/09 01:34:44;;;;;;;7.00;6.18;;;;;;;8.55;100.00;98422.47;5072084;28;20201;-72
2023/01/09 01:37:11;;;;;;;7.97;5.60;;;;;;;8.58;100.00;98424.06;5070871;28;20207;-71
2023/01/09 01:39:37;;;;;;;8.15;5.38;;;;;;;8.55;100.00;98433.19;5070789;28;20291;-72
2023/01/09 01:42:05;;;;;;;14.23;7.25;;;;;;;8.51;100.00;98429.00;5071639;28;20744;-72
2023/01/09 01:44:59;;;;;;;8.98;5.90;;;;;;;8.52;100.00;98420.00;5060498;28;20197;-72
2023/01/09 01:47:33;;;;;;;7.28;6.28;;;;;;;8.51;100.00;98431.69;5073058;28;20205;-72
2023/01/09 01:50:03;;;;;;;7.07;5.85;;;;;;;8.48;100.00;98439.97;5072023;28;20271;-72
2023/01/09 01:52:32;;;;;;;7.90;6.80;;;;;;;8.48;100.00;98423.88;5071412;28;20224;-71
2023/01/09 01:54:59;;;;;;;7.15;6.32;;;;;;;8.47;100.00;98446.28;5071666;28;20398;-71
2023/01/09 01:57:25;;;;;;;7.75;6.93;;;;;;;8.46;100.00;98428.47;5072316;28;20232;-72
2023/01/09 01:59:55;;;;;;;6.20;4.47;;;;;;;8.53;100.00;98448.53;5071410;28;20204;-72
2023/01/09 02:02:28;;;;;;;7.45;6.22;;;;;;;8.48;100.00;98452.47;5071460;28;20235;-72
2023/01/09 02:04:56;;;;;;;5.38;4.43;;;;;;;8.46;100.00;98467.84;5071305;28;20386;-72
2023/01/09 02:07:22;;;;;;;6.15;4.80;;;;;;;8.41;100.00;98470.84;5070673;28;20545;-72
2023/01/09 02:09:50;;;;;;;4.80;3.70;;;;;;;8.37;100.00;98482.72;5070799;28;20201;-71
2023/01/09 02:12:18;;;;;;;5.95;3.90;;;;;;;8.32;100.00;98472.28;5071463;28;20235;-72
2023/01/09 02:14:47;;;;;;;4.45;3.80;;;;;;;8.31;100.00;98483.09;5073013;28;20197;-73
2023/01/09 02:17:24;;;;;;;4.15;3.60;;;;;;;8.25;100.00;98472.78;5071449;28;20204;-70
2023/01/09 02:20:44;;;;;;;4.10;3.65;;;;;;;8.25;100.00;98478.13;5071289;28;20192;-71
2023/01/09 02:23:48;;;;;;;5.05;4.13;;;;;;;8.22;100.00;98483.72;4989310;28;20215;-72
2023/01/09 02:26:41;;;;;;;4.95;3.15;;;;;;;8.18;100.00;98487.56;4988134;28;20222;-70
2023/01/09 02:29:43;;;;;;;4.85;2.70;;;;;;;8.12;100.00;98486.16;4989820;28;20584;-73
2023/01/09 02:32:22;;;;;;;4.30;2.80;;;;;;;8.09;100.00;98489.03;4990014;28;20221;-72
2023/01/09 02:34:58;;;;;;;4.03;3.35;;;;;;;8.10;100.00;98475.53;4990117;28;20195;-72
2023/01/09 02:37:36;;;;;;;4.93;3.90;;;;;;;8.06;100.00;98478.50;4990418;28;20205;-73
2023/01/09 02:40:13;;;;;;;3.78;3.20;;;;;;;8.05;100.00;98477.66;4990431;28;20597;-73
2023/01/09 02:42:41;;;;;;;4.25;3.50;;;;;;;8.05;100.00;98483.00;4990491;28;20211;-72
2023/01/09 02:45:08;;;;;;;4.47;3.72;;;;;;;8.03;100.00;98484.09;4993123;28;20209;-72
2023/01/09 02:47:42;;;;;;;4.10;3.25;;;;;;;8.03;100.00;98476.88;4993635;28;20207;-72
2023/01/09 02:50:13;;;;;;;4.55;2.85;;;;;;;7.97;100.00;98488.00;4991028;28;20282;-72
2023/01/09 02:53:07;;;;;;;3.72;2.72;;;;;;;7.90;100.00;98492.06;4992114;28;20223;-71
2023/01/09 02:55:44;;;;;;;5.95;2.92;;;;;;;7.91;100.00;98491.97;5067814;28;20220;-71
2023/01/09 02:58:18;;;;;;;5.82;2.65;;;;;;;7.91;100.00;98496.44;5070846;28;20212;-71
2023/01/09 03:00:56;;;;;;;5.55;3.28;;;;;;;7.91;100.00;98497.31;5077338;28;20200;-72
2023/01/09 03:03:34;;;;;;;3.35;2.67;;;;;;;7.89;100.00;98501.03;5073511;28;20203;-73
2023/01/09 03:06:08;;;;;;;3.05;2.13;;;;;;;7.89;100.00;98501.03;5065775;28;20208;-72
2023/01/09 03:08:39;;;;;;;4.00;2.55;;;;;;;7.85;100.00;98510.25;5073579;28;20189;-71
2023/01/09 03:11:07;;;;;;;3.60;2.47;;;;;;;7.90;100.00;98508.97;5074400;28;20197;-71
2023/01/09 03:13:39;;;;;;;2.78;2.30;;;;;;;7.95;100.00;98519.41;5073615;28;20223;-70
2023/01/09 03:16:09;;;;;;;3.38;2.05;;;;;;;7.86;100.00;98528.91;5074461;28;20212;-72
2023/01/09 03:18:39;;;;;;;3.20;2.40;;;;;;;7.90;100.00;98516.16;5074001;28;20215;-73
2023/01/09 03:21:07;;;;;;;2.60;2.00;;;;;;;7.89;100.00;98522.47;5074508;28;20572;-72
2023/01/09 03:23:49;;;;;;;2.50;1.80;;;;;;;7.85;100.00;98529.00;5074477;28;20218;-73
2023/01/09 03:26:16;;;;;;;2.97;1.90;;;;;;;7.84;100.00;98538.84;5072009;28;20201;-72
2023/01/09 03:28:43;;;;;;;2.80;1.70;;;;;;;7.78;100.00;98547.31;5073821;28;20199;-72
2023/01/09 03:31:10;;;;;;;2.25;1.65;;;;;;;7.80;100.00;98553.44;5074471;28;20717;-71
2023/01/09 03:33:38;;;;;;;1.85;1.38;;;;;;;7.78;100.00;98549.97;5076964;28;20205;-71
2023/01/09 03:36:06;;;;;;;2.30;1.25;;;;;;;7.78;100.00;98544.63;5071370;28;20220;-72
2023/01/09 03:38:32;;;;;;;1.80;1.30;;;;;;;7.79;100.00;98548.16;5074600;28;20201;-72
2023/01/09 03:40:59;;;;;;;1.70;1.05;;;;;;;7.81;100.00;98562.31;5075805;28;20616;-72
2023/01/09 03:43:25;;;;;;;2.25;1.10;;;;;;;7.83;100.00;98573.81;5075958;28;20204;-72
2023/01/09 03:45:52;;;;;;;3.38;1.13;;;;;;;7.84;100.00;98581.72;5074942;28;20199;-73
2023/01/09 03:48:19;;;;;;;3.60;0.88;;;;;;;7.81;100.00;98579.25;5073704;28;20257;-72
2023/01/09 03:50:48;;;;;;;2.88;0.95;;;;;;;7.77;100.00;98576.88;5074013;28;20204;-73
2023/01/09 03:53:15;;;;;;;1.83;0.70;;;;;;;7.78;100.00;98574.09;5074387;28;20205;-73
2023/01/09 03:55:45;;;;;;;1.83;0.90;;;;;;;7.77;100.00;98574.19;5073347;28;20220;-72
2023/01/09 03:58:11;;;;;;;1.48;0.80;;;;;;;7.81;100.00;98571.22;5073714;28;20196;-71
2023/01/09 04:00:39;;;;;;;1.20;0.60;;;;;;;7.78;100.00;98579.47;5074503;28;20581;-72
2023/01/09 04:03:06;;;;;;;1.52;0.80;;;;;;;7.75;100.00;98576.09;5073588;28;20238;-71
2023/01/09 04:05:33;;;;;;;1.30;0.70;;;;;;;7.77;100.00;98576.88;5073906;28;20218;-72
2023/01/09 04:08:01;;;;;;;1.40;0.73;;;;;;;7.74;100.00;98580.59;5072153;28;20243;-72
2023/01/09 04:10:27;;;;;;;1.60;0.80;;;;;;;7.69;100.00;98580.88;5074074;28;20651;-71
2023/01/09 04:12:54;;;;;;;1.92;0.70;;;;;;;7.71;100.00;98576.31;5074096;28;20221;-72
2023/01/09 04:15:20;;;;;;;1.50;0.68;;;;;;;7.70;100.00;98581.75;5072485;28;20196;-72
2023/01/09 04:17:47;;;;;;;2.75;0.60;;;;;;;7.69;100.00;98593.44;5072469;28;20226;-72
2023/01/09 04:20:13;;;;;;;2.17;0.90;;;;;;;7.65;100.00;98587.38;5072732;28;20223;-72
2023/01/09 04:22:40;;;;;;;1.50;0.70;;;;;;;7.62;100.00;98598.31;5076815;28;20219;-71
2023/01/09 04:25:09;;;;;;;2.47;0.90;;;;;;;7.62;100.00;98613.50;5081727;28;20212;-72
2023/01/09 04:27:35;;;;;;;1.10;0.60;;;;;;;7.63;100.00;98616.09;5080317;28;20205;-72
2023/01/09 04:30:02;;;;;;;1.30;0.60;;;;;;;7.65;100.00;98638.28;5081613;28;20203;-72
2023/01/09 04:32:29;;;;;;;1.90;0.95;;;;;;;7.61;100.00;98634.06;5076850;28;20220;-72
2023/01/09 04:34:56;;;;;;;1.20;0.70;;;;;;;7.62;100.00;98637.59;5073462;28;20204;-74
2023/01/09 04:37:23;;;;;;;1.40;0.80;;;;;;;7.62;100.00;98651.88;5072977;28;20239;-71
2023/01/09 04:39:52;;;;;;;1.38;0.80;;;;;;;7.59;100.00;98646.69;5072420;28;20210;-73
2023/01/09 04:42:20;;;;;;;1.40;0.70;;;;;;;7.62;100.00;98657.25;5073611;28;20223;-73
2023/01/09 04:44:46;;;;;;;1.45;0.90;;;;;;;7.58;100.00;98671.78;5072990;28;20590;-72
2023/01/09 04:47:13;;;;;;;2.20;1.13;;;;;;;7.57;100.00;98679.91;5073943;28;20203;-73
2023/01/09 04:49:39;;;;;;;1.58;0.90;;;;;;;7.58;100.00;98692.34;5071830;28;20197;-72
2023/01/09 04:52:06;;;;;;;2.65;1.30;;;;;;;7.55;100.00;98701.41;5073553;28;20231;-72
2023/01/09 04:54:33;;;;;;;2.03;1.17;;;;;;;7.54;100.00;98713.09;5073815;28;20566;-71
2023/01/09 04:56:59;;;;;;;1.77;1.05;;;;;;;7.53;100.00;98708.69;5073149;28;20319;-72
2023/01/09 04:59:27;;;;;;;1.70;1.10;;;;;;;7.47;100.00;98695.66;5072817;28;20200;-72
2023/01/09 05:01:54;;;;;;;2.03;0.95;;;;;;;7.47;100.00;98704.56;5073087;28;20220;-73
2023/01/09 05:04:21;;;;;;;1.50;0.60;;;;;;;7.43;100.00;98702.16;5090886;28;20609;-71
2023/01/09 05:06:47;;;;;;;1.73;0.80;;;;;;;7.40;100.00;98697.00;5088789;28;20193;-72
2023/01/09 05:09:14;;;;;;;1.20;0.68;;;;;;;7.41;100.00;98707.59;5072737;28;20201;-72
2023/01/09 05:11:41;;;;;;;1.50;0.70;;;;;;;7.40;100.00;98708.56;5073724;28;20224;-73
2023/01/09 05:14:07;;;;;;;1.65;1.30;;;;;;;7.44;100.00;98717.25;5095669;28;20200;-72
2023/01/09 05:16:35;;;;;;;3.75;1.95;;;;;;;7.44;100.00;98715.47;5100335;28;20215;-74
2023/01/09 05:19:01;;;;;;;4.38;1.10;;;;;;;7.42;100.00;98721.88;5095500;28;20203;-73
2023/01/09 05:21:28;;;;;;;2.00;1.13;;;;;;;7.41;100.00;98723.66;5098553;28;20227;-73
2023/01/09 05:23:55;;;;;;;1.90;1.10;;;;;;;7.35;100.00;98723.16;5080847;28;20203;-73
2023/01/09 05:26:23;;;;;;;4.72;0.90;;;;;;;7.36;100.00;98724.91;5075453;28;20200;-71
2023/01/09 05:28:49;;;;;;;2.28;0.82;;;;;;;7.34;100.00;98732.16;5072679;28;20295;-72
2023/01/09 05:31:16;;;;;;;1.35;0.82;;;;;;;7.30;100.00;98718.97;5072421;28;20225;-73
2023/01/09 05:33:44;;;;;;;1.27;0.73;;;;;;;7.34;100.00;98729.47;5060483;28;20196;-73
2023/01/09 05:36:10;;;;;;;1.92;0.70;;;;;;;7.28;100.00;98734.25;5072704;28;20205;-75
2023/01/09 05:38:37;;;;;;;2.45;0.90;;;;;;;7.42;100.00;98735.25;5071101;28;20207;-73
2023/01/09 05:41:04;;;;;;;1.30;0.70;;;;;;;7.45;100.00;98735.94;5076136;28;20197;-70
2023/01/09 05:43:30;;;;;;;1.95;0.60;;;;;;;7.51;100.00;98732.03;5076725;28;20188;-74
2023/01/09 05:45:57;;;;;;;1.58;0.70;;;;;;;7.49;100.00;98737.47;5078021;28;20857;-72
2023/01/09 05:48:23;;;;;;;1.88;0.70;;;;;;;7.42;100.00;98756.69;5076315;28;20685;-73
2023/01/09 05:50:51;;;;;;;1.30;0.77;;;;;;;7.40;100.00;98777.34;5078242;28;20204;-72
2023/01/09 05:53:18;;;;;;;1.27;0.60;;;;;;;7.37;100.00;98781.06;5077432;28;20220;-73
2023/01/09 05:55:44;;;;;;;2.72;0.80;;;;;;;7.28;100.00;98777.09;5074928;28;20214;-72
2023/01/09 05:58:11;;;;;;;1.85;0.73;;;;;;;7.30;100.00;98783.22;5071847;28;20225;-71
2023/01/09 06:00:38;;;;;;;1.20;0.70;;;;;;;7.29;100.00;98796.69;5090631;28;20222;-71
2023/01/09 06:03:04;;;;;;;1.20;0.65;;;;;;;7.31;100.00;98795.66;5092487;28;20226;-74
2023/01/09 06:05:31;;;;;;;1.30;0.80;;;;;;;7.37;100.00;98790.88;5078911;28;20241;-72
2023/01/09 06:07:59;;;;;;;1.95;0.70;;;;;;;7.31;100.00;98794.78;5071411;28;20192;-74
2023/01/09 06:10:25;;;;;;;6.03;0.90;;;;;;;7.23;100.00;98791.69;5072141;28;20177;-73
2023/01/09 06:12:53;;;;;;;1.70;0.80;;;;;;;7.26;100.00;98800.41;5071882;28;20238;-72
2023/01/09 06:15:20;;;;;;;1.80;0.80;;;;;;;7.15;100.00;98804.66;5072377;28;20196;-72
2023/01/09 06:17:47;;;;;;;1.77;1.05;;;;;;;7.15;100.00;98791.28;5071311;28;20237;-71
2023/01/09 06:20:14;;;;;;;2.10;0.85;;;;;;;7.11;100.00;98809.31;5072027;28;20200;-72
2023/01/09 06:22:44;;;;;;;1.95;0.90;;;;;;;7.07;100.00;98810.44;5072291;28;20259;-74
2023/01/09 06:25:12;;;;;;;1.88;0.80;;;;;;;7.07;100.00;98813.13;5072056;28;20189;-73
2023/01/09 06:27:39;;;;;;;2.00;0.98;;;;;;;7.07;100.00;98807.75;5071748;28;20208;-74
2023/01/09 06:30:07;;;;;;;1.98;1.10;;;;;;;7.23;100.00;98821.13;5071949;28;20205;-74
2023/01/09 06:32:33;;;;;;;2.53;0.90;;;;;;;7.24;100.00;98813.03;5071814;28;20717;-73
2023/01/09 06:35:00;;;;;;;2.47;1.02;;;;;;;7.32;100.00;98816.09;5072279;28;20211;-72
2023/01/09 06:37:26;;;;;;;2.85;1.15;;;;;;;7.39;100.00;98821.97;5071905;28;20224;-72
2023/01/09 06:39:53;;;;;;;1.95;0.70;;;;;;;7.41;100.00;98828.13;5076014;28;20196;-72
2023/01/09 06:42:21;;;;;;;2.30;1.00;;;;;;;7.48;100.00;98832.19;5076331;28;20217;-72
2023/01/09 06:44:48;;;;;;;5.60;1.23;;;;;;;7.44;100.00;98840.47;5077272;28;20200;-72
2023/01/09 06:47:14;;;;;;;1.98;0.90;;;;;;;7.39;100.00;98845.22;5075808;28;20204;-73
2023/01/09 06:49:41;;;;;;;2.55;0.90;;;;;;;7.40;100.00;98846.97;5075750;28;20211;-73
2023/01/09 06:52:08;;;;;;;1.33;0.80;;;;;;;7.48;100.00;98853.63;5077227;28;20688;-72
2023/01/09 06:54:34;;;;;;;2.17;0.90;;;;;;;7.50;100.00;98850.84;5076039;28;20200;-73
2023/01/09 06:57:01;;;;;;;4.45;1.10;;;;;;;7.51;100.00;98856.13;5075947;28;20600;-73
2023/01/09 06:59:29;;;;;;;2.13;1.00;;;;;;;7.39;100.00;98854.13;5075202;28;20203;-73
2023/01/09 07:01:55;;;;;;;6.40;1.20;;;;;;;7.45;100.00;98851.09;5078236;28;20311;-72
2023/01/09 07:04:22;;;;;;;1.80;0.93;;;;;;;7.45;100.00;98858.28;5078721;28;20212;-72
2023/01/09 07:06:49;;;;;;;2.15;1.00;;;;;;;7.45;100.00;98856.44;5078601;28;20204;-73
2023/01/09 07:09:16;;;;;;;3.58;1.27;;;;;;;7.48;100.00;98863.44;5077582;28;20593;-74
2023/01/09 07:11:42;;;;;;;2.58;1.13;;;;;;;7.50;100.00;98882.97;5078079;28;20725;-73
2023/01/09 07:14:09;;;;;;;2.05;1.50;;;;;;;7.59;100.00;98866.38;5079324;28;20207;-73
2023/01/09 07:16:37;;;;;;;2.28;1.50;;;;;;;7.57;100.00;98867.41;5078111;28;20593;-73
2023/01/09 07:19:03;;;;;;;3.08;1.58;;;;;;;7.56;100.00;98865.72;5076967;28;20208;-73
2023/01/09 07:21:30;;;;;;;2.47;1.30;;;;;;;7.50;100.00;98869.59;5075874;28;20224;-72
2023/01/09 07:23:56;;;;;;;8.30;1.50;;;;;;;7.44;100.00;98864.56;5075630;28;20288;-73
2023/01/09 07:26:23;;;;;;;3.40;1.45;;;;;;;7.41;100.00;98865.59;5075525;28;20201;-73
2023/01/09 07:28:49;;;;;;;7.13;1.60;;;;;;;7.39;100.00;98864.84;5076123;28;20311;-73
2023/01/09 07:31:16;;;;;;;3.45;1.50;;;;;;;7.35;100.00;98862.41;5081151;28;20221;-72
2023/01/09 07:33:44;;;;;;;2.42;1.50;;;;;;;7.40;100.00;98871.94;5081191;28;20201;-73
2023/01/09 07:36:10;;;;;;;3.92;1.55;;;;;;;7.42;100.00;98879.91;5079993;28;20211;-74
2023/01/09 07:38:37;;;;;;;3.45;1.13;;;;;;;7.43;100.00;98878.94;5075145;28;20217;-73
2023/01/09 07:41:04;;;;;;;1.80;1.20;;;;;;;7.46;100.00;98881.41;5076642;28;20295;-73
2023/01/09 07:43:30;;;;;;;3.90;1.13;;;;;;;7.42;100.00;98885.25;5075215;28;20203;-73
2023/01/09 07:45:57;;;;;;;2.13;1.13;;;;;;;7.48;100.00;98891.13;5075323;28;20207;-73
2023/01/09 07:48:23;;;;;;;4.35;1.15;;;;;;;7.44;100.00;98888.66;5075117;28;20283;-73
2023/01/09 07:50:51;;;;;;;3.65;1.10;;;;;;;7.47;100.00;98900.09;5075064;28;20243;-73
2023/01/09 07:53:18;;;;;;;4.20;1.27;;;;;;;7.49;100.00;98905.38;5074724;28;20537;-73
2023/01/09 07:55:44;;;;;;;1.60;0.80;;;;;;;7.52;100.00;98908.72;5075271;28;20201;-74
2023/01/09 07:58:11;;;;;;;3.33;1.00;;;;;;;7.60;100.00;98902.94;5074101;28;20259;-74
2023/01/09 08:00:38;;;;;;;2.50;1.13;;;;;;;7.67;100.00;98916.88;5080683;28;20201;-72
2023/01/09 08:03:04;;;;;;;2.78;1.05;;;;;;;7.72;100.00;98912.94;5085790;28;20231;-72
2023/01/09 08:05:32;;;;;;;3.38;1.35;;;;;;;7.81;100.00;98913.38;5088261;28;20207;-72
2023/01/09 08:08:00;;;;;;;3.13;1.15;;;;;;;7.76;100.00;98918.16;5087369;28;20207;-72
2023/01/09 08:10:27;;;;;;;2.75;1.10;;;;;;;7.75;100.00;98909.22;5092865;28;20205;-73
2023/01/09 08:12:54;;;;;;;2.63;1.05;;;;;;;7.82;100.00;98912.41;5094983;28;20229;-74
2023/01/09 08:15:21;;;;;;;3.80;1.20;;;;;;;7.77;100.00;98927.91;5092810;28;20196;-74
2023/01/09 08:17:47;;;;;;;3.92;1.50;;;;;;;7.80;100.00;98927.72;5079596;28;20220;-74
2023/01/09 08:20:17;;;;;;;3.78;1.17;;;;;;;7.80;100.00;98909.84;5079090;28;20204;-74
2023/01/09 08:22:48;;;;;;;1.88;0.80;;;;;;;7.88;100.00;98915.59;5075943;28;20306;-73
2023/01/09 08:25:16;;;;;;;3.58;1.10;;;;;;;7.86;100.00;98911.28;5075235;28;20180;-74
2023/01/09 08:27:43;;;;;;;4.78;1.10;;;;;;;7.77;100.00;98922.53;5075528;28;20203;-74
2023/01/09 08:30:11;;;;;;;3.65;1.73;;;;;;;7.72;100.00;98917.44;5075579;28;20296;-72
2023/01/09 08:32:38;;;;;;;6.05;1.35;;;;;;;7.74;100.00;98920.91;5074707;28;20560;-73
2023/01/09 08:35:05;;;;;;;3.95;0.98;;;;;;;7.85;100.00;98917.63;5074867;28;20572;-72
2023/01/09 08:37:32;;;;;;;3.65;1.52;;;;;;;7.84;100.00;98915.88;5073968;28;20228;-74
2023/01/09 08:39:58;;;;;;;4.82;1.50;;;;;;;7.93;100.00;98928.75;5075905;28;20209;-73
2023/01/09 08:47:55;;;;;;;2.35;1.20;;;;;;;8.74;100.00;98915.88;5083198;28;20294;-75
2023/01/09 08:50:22;;;;;;;3.17;1.20;;;;;;;9.68;100.00;98911.75;5087360;28;20211;-73
2023/01/09 08:52:48;;;;;;;4.55;1.20;;;;;;;9.58;100.00;98914.19;5089452;28;20260;-73
2023/01/09 08:55:15;;;;;;;3.40;1.48;;;;;;;9.42;100.00;98914.31;5089319;28;20205;-74
2023/01/09 08:57:49;;;;;;;2.13;1.20;;;;;;;9.08;100.00;98921.84;5087774;28;20228;-73
2023/01/09 09:00:16;;;;;;;2.22;1.13;;;;;;;9.34;100.00;98930.09;5088984;28;20188;-72
2023/01/09 09:02:43;;;;;;;2.08;1.10;;;;;;;9.91;100.00;98935.34;5087135;28;20221;-73
2023/01/09 09:05:09;;;;;;;2.05;1.30;;;;;;;10.06;100.00;98919.13;5082442;28;20670;-73
2023/01/09 09:07:36;;;;;;;2.20;0.95;;;;;;;9.76;100.00;98929.13;5074046;28;20213;-74
2023/01/09 09:10:03;;;;;;;3.17;0.80;;;;;;;9.56;100.00;98924.19;5074826;28;20200;-74
2023/01/09 09:12:30;;;;;;;1.40;0.68;;;;;;;9.86;100.00;98915.94;5074615;28;20228;-72
2023/01/09 09:15:15;;;;;;;1.52;0.75;;;;;;;9.53;100.00;98925.25;5073918;28;20207;-72
2023/01/09 09:17:43;;;;;;;4.03;1.85;;;;;;;9.38;100.00;98934.28;5072833;28;20263;-73
2023/01/09 09:20:10;;;;;;;2.97;0.90;;;;;;;8.82;100.00;98936.00;5074062;28;20212;-73
2023/01/09 09:22:37;;;;;;;1.33;0.80;;;;;;;8.55;100.00;98950.19;5074916;28;20221;-73
2023/01/09 09:25:04;;;;;;;2.17;1.00;;;;;;;8.36;100.00;98942.31;5074051;28;20295;-73
2023/01/09 09:27:31;;;;;;;1.33;0.70;;;;;;;8.24;100.00;98949.28;5074778;28;20197;-72
2023/01/09 09:29:58;;;;;;;1.35;0.82;;;;;;;8.20;100.00;98963.81;5074830;28;20204;-73
2023/01/09 09:32:25;;;;;;;2.85;0.80;;;;;;;8.22;100.00;98967.28;5075213;28;20216;-73
2023/01/09 09:34:51;;;;;;;3.03;0.75;;;;;;;8.25;100.00;98958.19;5075056;28;20270;-72
2023/01/09 09:37:18;;;;;;;2.10;1.00;;;;;;;8.21;100.00;98959.31;5075052;28;20204;-73
2023/01/09 09:39:45;;;;;;;3.20;1.13;;;;;;;8.42;100.00;98955.41;5073872;28;20299;-73
2023/01/09 09:45:33;;;;;;;1.30;0.70;;;;;;;8.47;100.00;98955.97;5074907;28;20188;-74
2023/01/09 09:48:11;;;;;;;1.40;0.90;;;;;;;8.50;100.00;98982.66;5073230;28;20199;-73
2023/01/09 09:51:00;;;;;;;1.85;0.80;;;;;;;8.32;100.00;98964.91;5073658;28;20196;-74
2023/01/09 09:53:32;;;;;;;1.95;1.00;;;;;;;8.35;100.00;98962.91;5074598;28;20204;-73
2023/01/09 09:55:59;;;;;;;1.20;0.60;;;;;;;8.68;100.00;98966.38;5075334;28;20199;-72
2023/01/09 09:58:31;;;;;;;2.00;0.88;;;;;;;9.07;100.00;98971.16;5073597;28;20315;-73
2023/01/09 10:01:01;;;;;;;1.60;0.68;;;;;;;9.33;100.00;98960.59;5076685;28;20271;-74
2023/01/09 10:03:32;;;;;;;3.75;0.80;;;;;;;9.38;100.00;98959.34;5086623;28;20260;-73
2023/01/09 10:06:04;;;;;;;5.57;1.30;;;;;;;9.25;100.00;98968.25;5085644;28;20169;-72
2023/01/09 10:08:39;;;;;;;2.58;0.80;;;;;;;8.79;100.00;98950.50;5079964;28;20640;-73
2023/01/09 10:11:12;;;;;;;1.23;0.60;;;;;;;8.67;100.00;98967.34;5080911;28;20204;-73
2023/01/09 10:16:39;;;;;;;2.53;0.82;;;;;;;8.30;100.00;98958.78;5079581;28;20188;-74
2023/01/09 10:19:18;;;;;;;2.00;1.08;;;;;;;8.50;100.00;98960.28;5075634;28;20227;-74
2023/01/09 10:21:55;;;;;;;4.95;1.20;;;;;;;8.46;100.00;98958.78;5077997;28;20223;-73
2023/01/09 10:24:43;;;;;;;3.70;0.80;;;;;;;8.35;100.00;98968.28;5082743;28;20208;-72
2023/01/09 10:27:28;;;;;;;4.47;1.30;;;;;;;8.15;100.00;98969.44;5085826;28;20195;-74
2023/01/09 10:30:07;;;;;;;2.97;1.10;;;;;;;8.28;100.00;98958.00;5085840;28;20196;-74
2023/01/09 10:32:52;;;;;;;3.50;0.95;;;;;;;7.97;100.00;98957.09;5074114;28;20736;-72
2023/01/09 10:35:35;;;;;;;2.50;1.00;;;;;;;8.08;100.00;98956.50;5072927;28;20196;-73
2023/01/09 10:38:05;;;;;;;1.73;0.80;;;;;;;8.15;100.00;98960.53;5072314;28;20689;-74
2023/01/09 10:40:37;;;;;;;4.35;1.10;;;;;;;7.83;100.00;98957.03;5073483;28;20184;-74
2023/01/09 10:43:09;;;;;;;4.53;1.50;;;;;;;7.77;100.00;98957.38;5073779;28;20223;-75
2023/01/09 10:45:40;;;;;;;3.25;1.20;;;;;;;7.52;100.00;98967.66;5082456;28;20211;-72
2023/01/09 10:48:19;;;;;;;3.42;0.90;;;;;;;7.60;100.00;98967.25;5082681;28;20204;-73
2023/01/09 10:50:49;;;;;;;3.45;1.23;;;;;;;7.86;100.00;98967.59;5075090;28;20192;-75
2023/01/09 10:53:23;;;;;;;3.17;0.77;;;;;;;7.61;100.00;98950.22;5102524;22;20228;-75
2023/01/09 10:55:54;;;;;;;1.48;0.80;;;;;;;7.61;100.00;98944.84;5102551;28;20256;-77
2023/01/09 10:58:22;;;;;;;3.67;1.30;;;;;;;7.64;100.00;98955.41;5112611;28;20230;-78
2023/01/09 11:00:50;;;;;;;3.15;0.80;;;;;;;7.89;100.00;98957.56;5114777;28;20211;-77
2023/01/09 11:03:20;;;;;;;2.30;1.00;;;;;;;8.46;100.00;98948.03;5113674;28;20224;-77
2023/01/09 11:05:51;;;;;;;2.22;1.35;;;;;;;8.58;100.00;98939.25;5111388;28;20190;-76
2023/01/09 11:08:26;;;;;;;3.08;0.90;;;;;;;8.85;100.00;98944.75;5109486;28;20184;-76
2023/01/09 11:10:54;;;;;;;1.70;1.20;;;;;;;8.68;100.00;98952.97;5108038;28;20183;-75
2023/01/09 11:13:24;;;;;;;2.22;1.10;;;;;;;8.66;100.00;98952.19;5105695;28;20659;-77
2023/01/09 11:16:04;;;;;;;1.40;0.80;;;;;;;8.71;100.00;98936.69;5100664;28;20211;-76
2023/01/09 11:18:33;;;;;;;2.10;0.70;;;;;;;8.99;100.00;98946.59;5097917;28;20230;-76
2023/01/09 11:21:27;;;;;;;1.40;0.90;;;;;;;8.74;100.00;98944.53;5099162;28;20615;-77
2023/01/09 11:23:55;;;;;;;2.63;1.00;;;;;;;8.55;100.00;98942.13;5096682;28;20251;-77
2023/01/09 11:26:23;;;;;;;1.42;0.70;;;;;;;8.59;100.00;98938.28;5102387;28;20200;-77
2023/01/09 11:29:07;;;;;;;1.70;0.70;;;;;;;8.83;100.00;98951.19;5103324;28;20253;-76
2023/01/09 11:31:34;;;;;;;2.53;0.93;;;;;;;8.84;100.00;98943.03;5103312;28;20203;-77
2023/01/09 11:34:02;;;;;;;1.75;0.80;;;;;;;8.86;100.00;98942.94;5103363;28;20200;-77
2023/01/09 11:36:30;;;;;;;1.52;0.82;;;;;;;8.88;100.00;98941.00;5104317;28;20246;-76
2023/01/09 11:38:58;;;;;;;3.25;1.00;;;;;;;8.68;100.00;98947.59;5103035;28;20226;-75
2023/01/09 11:41:30;;;;;;;5.25;1.00;;;;;;;9.08;100.00;98945.16;5101817;28;20677;-76
2023/01/09 11:43:59;;;;;;;1.58;0.70;;;;;;;9.44;100.00;98943.78;5098767;28;20216;-75
2023/01/09 11:46:36;;;;;;;2.78;0.88;;;;;;;8.97;100.00;98954.72;5099286;28;20243;-77
2023/01/09 11:49:05;;;;;;;4.38;1.33;;;;;;;9.17;100.00;98961.53;5104118;28;20215;-77
2023/01/09 11:51:35;;;;;;;2.22;0.90;;;;;;;9.54;100.00;98959.25;5100013;28;20203;-77
2023/01/09 11:54:17;;;;;;;2.40;0.82;;;;;;;9.51;100.00;98955.88;5100725;28;20211;-77
2023/01/09 11:56:45;;;;;;;2.63;1.00;;;;;;;9.53;100.00;98953.94;5104002;28;20195;-76
2023/01/09 11:59:13;;;;;;;2.00;0.90;;;;;;;9.98;100.00;98960.84;5114585;28;20204;-77